sensor_id;sensor_type;location;lat;lon;timestamp;temperature;humidity
814;DHT22;389;48.710;9.392;2022-08-05T00:01:19;23.00;98.90
814;DHT22;389;48.710;9.392;2022-08-05T00:03:46;23.10;99.00
814;DHT22;389;48.710;9.392;2022-08-05T00:06:12;23.10;99.00
814;DHT22;389;48.710;9.392;2022-08-05T00:08:38;23.10;99.00
814;DHT22;389;48.710;9.392;2022-08-05T00:11:06;23.10;99.10
814;DHT22;389;48.710;9.392;2022-08-05T00:13:33;23.10;99.30
814;DHT22;389;48.710;9.392;2022-08-05T00:16:00;23.10;99.30
814;DHT22;389;48.710;9.392;2022-08-05T00:18:26;23.10;99.30
814;DHT22;389;48.710;9.392;2022-08-05T00:20:52;23.20;99.40
814;DHT22;389;48.710;9.392;2022-08-05T00:23:21;23.10;99.30
814;DHT22;389;48.710;9.392;2022-08-05T00:25:50;23.10;99.20
814;DHT22;389;48.710;9.392;2022-08-05T00:28:16;23.10;99.10
814;DHT22;389;48.710;9.392;2022-08-05T00:30:42;23.10;99.10
814;DHT22;389;48.710;9.392;2022-08-05T00:33:08;23.10;99.40
814;DHT22;389;48.710;9.392;2022-08-05T00:35:34;23.10;99.30
814;DHT22;389;48.710;9.392;2022-08-05T00:37:59;23.00;99.30
814;DHT22;389;48.710;9.392;2022-08-05T00:40:26;22.90;99.30
814;DHT22;389;48.710;9.392;2022-08-05T00:42:52;22.90;99.30
814;DHT22;389;48.710;9.392;2022-08-05T00:45:18;22.90;99.30
814;DHT22;389;48.710;9.392;2022-08-05T00:47:44;22.80;99.20
814;DHT22;389;48.710;9.392;2022-08-05T00:50:10;22.80;99.20
814;DHT22;389;48.710;9.392;2022-08-05T00:52:35;22.80;99.20
814;DHT22;389;48.710;9.392;2022-08-05T00:55:01;22.70;99.20
814;DHT22;389;48.710;9.392;2022-08-05T00:57:27;22.70;99.20
814;DHT22;389;48.710;9.392;2022-08-05T00:59:53;22.60;99.10
814;DHT22;389;48.710;9.392;2022-08-05T01:02:18;22.60;99.00
814;DHT22;389;48.710;9.392;2022-08-05T01:04:44;22.50;99.10
814;DHT22;389;48.710;9.392;2022-08-05T01:07:10;22.50;99.20
814;DHT22;389;48.710;9.392;2022-08-05T01:09:35;22.40;99.30
814;DHT22;389;48.710;9.392;2022-08-05T01:12:21;22.40;99.30
814;DHT22;389;48.710;9.392;2022-08-05T01:14:56;22.40;99.50
814;DHT22;389;48.710;9.392;2022-08-05T01:17:29;22.30;99.70
814;DHT22;389;48.710;9.392;2022-08-05T01:20:29;22.30;99.90
814;DHT22;389;48.710;9.392;2022-08-05T03:58:10;21.90;98.60
814;DHT22;389;48.710;9.392;2022-08-05T04:01:03;21.90;98.80
814;DHT22;389;48.710;9.392;2022-08-05T04:36:25;21.60;99.10
814;DHT22;389;48.710;9.392;2022-08-05T04:46:38;21.80;99.30
814;DHT22;389;48.710;9.392;2022-08-05T04:52:55;21.90;99.20
814;DHT22;389;48.710;9.392;2022-08-05T04:59:31;22.20;98.60
814;DHT22;389;48.710;9.392;2022-08-05T05:26:40;22.90;97.80
814;DHT22;389;48.710;9.392;2022-08-05T05:29:06;23.10;97.20
814;DHT22;389;48.710;9.392;2022-08-05T05:31:31;23.40;96.80
814;DHT22;389;48.710;9.392;2022-08-05T05:47:36;25.70;93.30
814;DHT22;389;48.710;9.392;2022-08-05T05:50:13;26.30;92.50
814;DHT22;389;48.710;9.392;2022-08-05T05:56:08;27.30;90.30
814;DHT22;389;48.710;9.392;2022-08-05T05:58:33;27.70;89.20
814;DHT22;389;48.710;9.392;2022-08-05T06:00:59;28.00;87.80
814;DHT22;389;48.710;9.392;2022-08-05T06:03:25;28.40;86.90
814;DHT22;389;48.710;9.392;2022-08-05T06:05:50;28.70;85.30
814;DHT22;389;48.710;9.392;2022-08-05T06:08:16;29.10;83.50
814;DHT22;389;48.710;9.392;2022-08-05T06:10:42;29.40;82.70
814;DHT22;389;48.710;9.392;2022-08-05T06:13:07;29.70;81.80
814;DHT22;389;48.710;9.392;2022-08-05T06:15:33;30.00;80.70
814;DHT22;389;48.710;9.392;2022-08-05T06:17:59;30.30;77.60
814;DHT22;389;48.710;9.392;2022-08-05T06:20:24;30.40;76.70
814;DHT22;389;48.710;9.392;2022-08-05T06:22:50;30.50;76.60
814;DHT22;389;48.710;9.392;2022-08-05T06:25:15;30.60;75.20
814;DHT22;389;48.710;9.392;2022-08-05T06:27:41;30.60;73.80
814;DHT22;389;48.710;9.392;2022-08-05T06:30:07;30.50;73.90
814;DHT22;389;48.710;9.392;2022-08-05T06:32:34;30.50;73.50
814;DHT22;389;48.710;9.392;2022-08-05T06:35:03;30.50;73.40
814;DHT22;389;48.710;9.392;2022-08-05T06:37:28;30.50;73.00
814;DHT22;389;48.710;9.392;2022-08-05T06:39:56;30.50;72.70
814;DHT22;389;48.710;9.392;2022-08-05T06:42:22;30.70;72.60
814;DHT22;389;48.710;9.392;2022-08-05T06:44:48;30.80;71.50
814;DHT22;389;48.710;9.392;2022-08-05T06:47:14;31.00;70.20
814;DHT22;389;48.710;9.392;2022-08-05T06:49:45;31.20;70.00
814;DHT22;389;48.710;9.392;2022-08-05T06:52:17;31.30;69.60
814;DHT22;389;48.710;9.392;2022-08-05T06:54:42;31.30;68.40
814;DHT22;389;48.710;9.392;2022-08-05T06:57:08;31.30;68.50
814;DHT22;389;48.710;9.392;2022-08-05T06:59:34;31.20;68.40
814;DHT22;389;48.710;9.392;2022-08-05T07:02:00;31.10;68.10
814;DHT22;389;48.710;9.392;2022-08-05T07:04:25;30.90;68.40
814;DHT22;389;48.710;9.392;2022-08-05T07:06:51;30.80;67.90
814;DHT22;389;48.710;9.392;2022-08-05T07:09:17;30.60;68.70
814;DHT22;389;48.710;9.392;2022-08-05T07:11:43;30.40;70.10
814;DHT22;389;48.710;9.392;2022-08-05T07:14:09;30.30;69.30
814;DHT22;389;48.710;9.392;2022-08-05T07:16:53;30.20;69.00
814;DHT22;389;48.710;9.392;2022-08-05T07:34:38;29.40;70.50
814;DHT22;389;48.710;9.392;2022-08-05T07:37:03;29.40;71.00
814;DHT22;389;48.710;9.392;2022-08-05T07:39:29;29.40;70.30
814;DHT22;389;48.710;9.392;2022-08-05T07:41:55;29.40;70.00
814;DHT22;389;48.710;9.392;2022-08-05T07:44:20;29.40;70.70
814;DHT22;389;48.710;9.392;2022-08-05T07:46:47;29.40;71.30
814;DHT22;389;48.710;9.392;2022-08-05T07:49:13;29.40;70.50
814;DHT22;389;48.710;9.392;2022-08-05T07:51:38;29.40;70.80
814;DHT22;389;48.710;9.392;2022-08-05T07:54:05;29.40;70.70
814;DHT22;389;48.710;9.392;2022-08-05T07:56:30;29.40;69.70
814;DHT22;389;48.710;9.392;2022-08-05T07:58:56;29.40;70.30
814;DHT22;389;48.710;9.392;2022-08-05T08:01:22;29.50;69.90
814;DHT22;389;48.710;9.392;2022-08-05T08:03:50;29.50;69.00
814;DHT22;389;48.710;9.392;2022-08-05T08:06:15;29.50;68.50
814;DHT22;389;48.710;9.392;2022-08-05T08:08:41;29.50;69.40
814;DHT22;389;48.710;9.392;2022-08-05T08:11:07;29.40;68.60
814;DHT22;389;48.710;9.392;2022-08-05T08:13:32;29.40;68.70
814;DHT22;389;48.710;9.392;2022-08-05T08:15:58;29.40;68.80
814;DHT22;389;48.710;9.392;2022-08-05T08:18:23;29.40;68.20
814;DHT22;389;48.710;9.392;2022-08-05T08:20:49;29.40;68.10
814;DHT22;389;48.710;9.392;2022-08-05T08:23:15;29.30;67.80
814;DHT22;389;48.710;9.392;2022-08-05T08:25:43;29.30;67.90
814;DHT22;389;48.710;9.392;2022-08-05T08:28:09;29.20;67.40
814;DHT22;389;48.710;9.392;2022-08-05T08:30:34;29.20;67.10
814;DHT22;389;48.710;9.392;2022-08-05T08:33:06;29.30;67.80
814;DHT22;389;48.710;9.392;2022-08-05T08:35:32;29.30;68.70
814;DHT22;389;48.710;9.392;2022-08-05T08:37:57;29.40;68.10
814;DHT22;389;48.710;9.392;2022-08-05T08:40:23;29.50;67.20
814;DHT22;389;48.710;9.392;2022-08-05T08:42:50;29.60;66.00
814;DHT22;389;48.710;9.392;2022-08-05T08:45:17;29.70;66.50
814;DHT22;389;48.710;9.392;2022-08-05T08:47:45;29.80;65.40
814;DHT22;389;48.710;9.392;2022-08-05T08:50:11;29.80;65.80
814;DHT22;389;48.710;9.392;2022-08-05T08:52:38;29.90;64.30
814;DHT22;389;48.710;9.392;2022-08-05T08:55:07;30.00;63.90
814;DHT22;389;48.710;9.392;2022-08-05T08:57:33;30.00;63.50
814;DHT22;389;48.710;9.392;2022-08-05T08:59:59;30.00;63.60
814;DHT22;389;48.710;9.392;2022-08-05T09:02:26;30.00;63.10
814;DHT22;389;48.710;9.392;2022-08-05T09:04:52;30.00;62.70
814;DHT22;389;48.710;9.392;2022-08-05T09:07:17;30.10;62.50
814;DHT22;389;48.710;9.392;2022-08-05T09:09:43;30.20;63.60
814;DHT22;389;48.710;9.392;2022-08-05T09:12:09;30.20;62.70
814;DHT22;389;48.710;9.392;2022-08-05T09:14:35;30.20;62.90
814;DHT22;389;48.710;9.392;2022-08-05T09:17:03;30.30;59.90
814;DHT22;389;48.710;9.392;2022-08-05T09:19:28;30.30;59.30
814;DHT22;389;48.710;9.392;2022-08-05T09:21:54;30.30;59.50
814;DHT22;389;48.710;9.392;2022-08-05T09:24:19;30.30;59.60
814;DHT22;389;48.710;9.392;2022-08-05T09:26:49;30.40;59.80
814;DHT22;389;48.710;9.392;2022-08-05T09:29:14;30.30;59.00
814;DHT22;389;48.710;9.392;2022-08-05T09:31:40;30.30;59.00
814;DHT22;389;48.710;9.392;2022-08-05T09:34:09;30.30;59.20
814;DHT22;389;48.710;9.392;2022-08-05T09:36:45;30.20;58.90
814;DHT22;389;48.710;9.392;2022-08-05T09:39:15;30.20;58.30
814;DHT22;389;48.710;9.392;2022-08-05T09:41:58;30.10;58.30
814;DHT22;389;48.710;9.392;2022-08-05T09:44:34;30.00;59.00
814;DHT22;389;48.710;9.392;2022-08-05T09:47:11;30.00;58.70
814;DHT22;389;48.710;9.392;2022-08-05T09:49:45;29.90;58.70
814;DHT22;389;48.710;9.392;2022-08-05T09:54:53;29.90;57.90
814;DHT22;389;48.710;9.392;2022-08-05T09:57:34;30.00;58.40
814;DHT22;389;48.710;9.392;2022-08-05T10:00:05;30.10;58.90
814;DHT22;389;48.710;9.392;2022-08-05T10:02:37;30.20;58.40
814;DHT22;389;48.710;9.392;2022-08-05T10:05:15;30.40;58.50
814;DHT22;389;48.710;9.392;2022-08-05T10:08:00;30.60;59.00
814;DHT22;389;48.710;9.392;2022-08-05T10:10:31;30.90;57.10
814;DHT22;389;48.710;9.392;2022-08-05T10:12:59;31.10;56.20
814;DHT22;389;48.710;9.392;2022-08-05T10:15:35;31.40;56.80
814;DHT22;389;48.710;9.392;2022-08-05T10:18:15;31.70;55.00
814;DHT22;389;48.710;9.392;2022-08-05T10:20:45;31.80;54.70
814;DHT22;389;48.710;9.392;2022-08-05T10:23:13;32.00;55.10
814;DHT22;389;48.710;9.392;2022-08-05T10:25:39;32.10;55.60
814;DHT22;389;48.710;9.392;2022-08-05T10:28:05;32.20;56.90
814;DHT22;389;48.710;9.392;2022-08-05T10:30:31;32.30;57.10
814;DHT22;389;48.710;9.392;2022-08-05T10:32:57;32.50;56.60
814;DHT22;389;48.710;9.392;2022-08-05T10:35:25;32.60;56.50
814;DHT22;389;48.710;9.392;2022-08-05T10:37:52;32.70;56.20
814;DHT22;389;48.710;9.392;2022-08-05T10:40:29;32.80;56.00
814;DHT22;389;48.710;9.392;2022-08-05T10:43:10;32.80;56.20
814;DHT22;389;48.710;9.392;2022-08-05T10:45:37;32.80;55.80
814;DHT22;389;48.710;9.392;2022-08-05T10:53:54;32.80;54.80
814;DHT22;389;48.710;9.392;2022-08-05T10:56:21;32.80;54.70
814;DHT22;389;48.710;9.392;2022-08-05T11:01:40;32.80;54.90
814;DHT22;389;48.710;9.392;2022-08-05T11:04:15;32.80;54.90
814;DHT22;389;48.710;9.392;2022-08-05T11:09:27;32.70;54.00
814;DHT22;389;48.710;9.392;2022-08-05T11:11:54;32.70;53.90
814;DHT22;389;48.710;9.392;2022-08-05T11:14:29;32.80;54.90
814;DHT22;389;48.710;9.392;2022-08-05T11:17:26;32.70;54.50
814;DHT22;389;48.710;9.392;2022-08-05T11:19:53;32.70;55.10
814;DHT22;389;48.710;9.392;2022-08-05T11:22:46;32.70;55.20
814;DHT22;389;48.710;9.392;2022-08-05T11:25:29;32.70;54.40
814;DHT22;389;48.710;9.392;2022-08-05T11:33:51;32.80;53.30
814;DHT22;389;48.710;9.392;2022-08-05T11:36:19;32.60;53.30
814;DHT22;389;48.710;9.392;2022-08-05T11:41:23;32.70;54.60
814;DHT22;389;48.710;9.392;2022-08-05T11:43:58;32.70;54.60
814;DHT22;389;48.710;9.392;2022-08-05T11:46:33;32.80;54.90
814;DHT22;389;48.710;9.392;2022-08-05T11:49:00;32.90;54.60
814;DHT22;389;48.710;9.392;2022-08-05T11:51:29;33.00;54.40
814;DHT22;389;48.710;9.392;2022-08-05T11:53:55;33.00;54.70
814;DHT22;389;48.710;9.392;2022-08-05T11:56:21;33.10;53.90
814;DHT22;389;48.710;9.392;2022-08-05T11:58:48;33.10;52.80
814;DHT22;389;48.710;9.392;2022-08-05T12:01:17;33.10;53.80
814;DHT22;389;48.710;9.392;2022-08-05T12:06:23;33.30;53.80
814;DHT22;389;48.710;9.392;2022-08-05T12:08:53;33.30;53.40
814;DHT22;389;48.710;9.392;2022-08-05T12:11:29;33.30;53.50
814;DHT22;389;48.710;9.392;2022-08-05T12:14:00;33.30;53.20
814;DHT22;389;48.710;9.392;2022-08-05T12:16:34;33.40;52.50
814;DHT22;389;48.710;9.392;2022-08-05T12:19:00;33.40;51.60
814;DHT22;389;48.710;9.392;2022-08-05T12:23:59;33.30;53.00
814;DHT22;389;48.710;9.392;2022-08-05T12:26:41;33.30;51.80
814;DHT22;389;48.710;9.392;2022-08-05T12:29:10;33.50;51.80
814;DHT22;389;48.710;9.392;2022-08-05T12:31:36;33.50;52.20
814;DHT22;389;48.710;9.392;2022-08-05T12:34:05;33.50;51.40
814;DHT22;389;48.710;9.392;2022-08-05T12:36:31;33.50;51.50
814;DHT22;389;48.710;9.392;2022-08-05T12:38:57;33.60;51.80
814;DHT22;389;48.710;9.392;2022-08-05T12:41:29;33.70;51.60
814;DHT22;389;48.710;9.392;2022-08-05T12:43:58;33.70;52.10
814;DHT22;389;48.710;9.392;2022-08-05T12:46:30;33.70;53.10
814;DHT22;389;48.710;9.392;2022-08-05T12:49:09;33.80;52.90
814;DHT22;389;48.710;9.392;2022-08-05T12:54:23;34.00;53.00
814;DHT22;389;48.710;9.392;2022-08-05T12:56:58;34.10;52.60
814;DHT22;389;48.710;9.392;2022-08-05T12:59:29;34.10;51.60
814;DHT22;389;48.710;9.392;2022-08-05T13:02:06;34.10;50.60
814;DHT22;389;48.710;9.392;2022-08-05T13:04:34;34.20;50.40
814;DHT22;389;48.710;9.392;2022-08-05T13:07:03;34.30;50.70
814;DHT22;389;48.710;9.392;2022-08-05T13:09:29;34.40;50.80
814;DHT22;389;48.710;9.392;2022-08-05T13:12:15;34.50;50.60
814;DHT22;389;48.710;9.392;2022-08-05T13:14:43;34.60;50.40
814;DHT22;389;48.710;9.392;2022-08-05T13:17:18;34.60;49.20
814;DHT22;389;48.710;9.392;2022-08-05T13:22:30;34.70;48.30
814;DHT22;389;48.710;9.392;2022-08-05T13:25:00;34.70;47.70
814;DHT22;389;48.710;9.392;2022-08-05T13:27:32;34.70;47.50
814;DHT22;389;48.710;9.392;2022-08-05T13:29:58;34.80;47.70
814;DHT22;389;48.710;9.392;2022-08-05T13:32:25;34.80;47.50
814;DHT22;389;48.710;9.392;2022-08-05T13:34:51;34.80;47.90
814;DHT22;389;48.710;9.392;2022-08-05T13:37:18;34.80;47.50
814;DHT22;389;48.710;9.392;2022-08-05T13:39:46;34.80;48.30
814;DHT22;389;48.710;9.392;2022-08-05T13:42:11;34.80;47.90
814;DHT22;389;48.710;9.392;2022-08-05T13:44:37;34.90;48.20
814;DHT22;389;48.710;9.392;2022-08-05T13:47:03;34.90;48.00
814;DHT22;389;48.710;9.392;2022-08-05T13:49:28;34.90;48.30
814;DHT22;389;48.710;9.392;2022-08-05T13:51:54;34.90;48.20
814;DHT22;389;48.710;9.392;2022-08-05T13:54:19;34.90;49.00
814;DHT22;389;48.710;9.392;2022-08-05T13:56:45;35.00;49.20
814;DHT22;389;48.710;9.392;2022-08-05T13:59:11;35.10;49.20
814;DHT22;389;48.710;9.392;2022-08-05T14:01:37;35.30;49.50
814;DHT22;389;48.710;9.392;2022-08-05T14:04:02;35.30;48.20
814;DHT22;389;48.710;9.392;2022-08-05T14:06:47;35.40;47.50
814;DHT22;389;48.710;9.392;2022-08-05T14:09:12;35.40;48.00
814;DHT22;389;48.710;9.392;2022-08-05T14:11:38;35.40;48.90
814;DHT22;389;48.710;9.392;2022-08-05T14:14:06;35.50;49.10
814;DHT22;389;48.710;9.392;2022-08-05T14:16:32;35.50;48.30
814;DHT22;389;48.710;9.392;2022-08-05T14:18:58;35.50;48.70
814;DHT22;389;48.710;9.392;2022-08-05T14:21:23;35.50;48.40
814;DHT22;389;48.710;9.392;2022-08-05T14:23:49;35.40;48.10
814;DHT22;389;48.710;9.392;2022-08-05T14:26:15;35.40;48.30
814;DHT22;389;48.710;9.392;2022-08-05T14:28:43;35.30;48.80
814;DHT22;389;48.710;9.392;2022-08-05T14:31:09;35.30;48.60
814;DHT22;389;48.710;9.392;2022-08-05T14:33:35;35.30;49.00
814;DHT22;389;48.710;9.392;2022-08-05T14:36:01;35.20;48.50
814;DHT22;389;48.710;9.392;2022-08-05T14:38:29;35.10;49.30
814;DHT22;389;48.710;9.392;2022-08-05T14:40:55;35.00;50.20
814;DHT22;389;48.710;9.392;2022-08-05T14:43:21;34.80;50.80
814;DHT22;389;48.710;9.392;2022-08-05T14:45:47;34.70;51.10
814;DHT22;389;48.710;9.392;2022-08-05T14:48:12;34.60;51.40
814;DHT22;389;48.710;9.392;2022-08-05T14:50:38;34.50;51.50
814;DHT22;389;48.710;9.392;2022-08-05T14:53:03;34.30;51.40
814;DHT22;389;48.710;9.392;2022-08-05T14:55:29;34.20;51.40
814;DHT22;389;48.710;9.392;2022-08-05T14:57:55;34.00;51.70
814;DHT22;389;48.710;9.392;2022-08-05T15:00:20;33.80;50.10
814;DHT22;389;48.710;9.392;2022-08-05T15:02:46;33.50;50.40
814;DHT22;389;48.710;9.392;2022-08-05T15:05:12;33.20;50.70
814;DHT22;389;48.710;9.392;2022-08-05T15:07:38;33.00;51.30
814;DHT22;389;48.710;9.392;2022-08-05T15:10:04;32.80;51.50
814;DHT22;389;48.710;9.392;2022-08-05T15:12:30;32.70;51.60
814;DHT22;389;48.710;9.392;2022-08-05T15:14:57;32.70;52.10
814;DHT22;389;48.710;9.392;2022-08-05T15:17:23;32.60;52.00
814;DHT22;389;48.710;9.392;2022-08-05T15:19:48;32.60;52.40
814;DHT22;389;48.710;9.392;2022-08-05T15:22:14;32.60;52.50
814;DHT22;389;48.710;9.392;2022-08-05T15:24:40;32.60;53.00
814;DHT22;389;48.710;9.392;2022-08-05T15:27:06;32.50;53.80
814;DHT22;389;48.710;9.392;2022-08-05T15:29:32;32.60;54.30
814;DHT22;389;48.710;9.392;2022-08-05T15:31:57;32.60;54.60
814;DHT22;389;48.710;9.392;2022-08-05T15:34:24;32.60;55.20
814;DHT22;389;48.710;9.392;2022-08-05T15:36:50;32.50;55.30
814;DHT22;389;48.710;9.392;2022-08-05T15:39:15;32.40;56.00
814;DHT22;389;48.710;9.392;2022-08-05T15:41:41;32.30;56.10
814;DHT22;389;48.710;9.392;2022-08-05T15:44:07;32.10;56.50
814;DHT22;389;48.710;9.392;2022-08-05T15:46:32;32.10;57.20
814;DHT22;389;48.710;9.392;2022-08-05T15:48:58;32.10;57.30
814;DHT22;389;48.710;9.392;2022-08-05T15:51:25;32.00;57.30
814;DHT22;389;48.710;9.392;2022-08-05T15:53:51;32.00;57.70
814;DHT22;389;48.710;9.392;2022-08-05T15:56:18;31.90;58.30
814;DHT22;389;48.710;9.392;2022-08-05T15:58:44;31.80;58.50
814;DHT22;389;48.710;9.392;2022-08-05T16:01:11;31.50;59.00
814;DHT22;389;48.710;9.392;2022-08-05T16:03:39;31.40;59.50
814;DHT22;389;48.710;9.392;2022-08-05T16:06:05;31.20;59.70
814;DHT22;389;48.710;9.392;2022-08-05T16:08:31;31.10;60.40
814;DHT22;389;48.710;9.392;2022-08-05T16:10:57;31.00;60.50
814;DHT22;389;48.710;9.392;2022-08-05T16:13:23;31.00;60.70
814;DHT22;389;48.710;9.392;2022-08-05T16:15:48;30.90;61.00
814;DHT22;389;48.710;9.392;2022-08-05T16:18:16;30.80;61.20
814;DHT22;389;48.710;9.392;2022-08-05T16:20:42;30.70;61.90
814;DHT22;389;48.710;9.392;2022-08-05T16:23:07;30.70;62.00
814;DHT22;389;48.710;9.392;2022-08-05T16:25:33;30.60;62.40
814;DHT22;389;48.710;9.392;2022-08-05T16:28:01;30.50;61.40
814;DHT22;389;48.710;9.392;2022-08-05T16:30:27;30.40;61.40
814;DHT22;389;48.710;9.392;2022-08-05T16:32:55;30.40;61.50
814;DHT22;389;48.710;9.392;2022-08-05T16:35:22;30.30;61.30
814;DHT22;389;48.710;9.392;2022-08-05T16:37:47;30.30;61.20
814;DHT22;389;48.710;9.392;2022-08-05T16:40:13;30.10;62.00
814;DHT22;389;48.710;9.392;2022-08-05T16:42:39;30.00;62.60
814;DHT22;389;48.710;9.392;2022-08-05T16:45:06;29.90;62.70
814;DHT22;389;48.710;9.392;2022-08-05T16:47:32;29.80;62.90
814;DHT22;389;48.710;9.392;2022-08-05T16:49:57;29.70;63.60
814;DHT22;389;48.710;9.392;2022-08-05T16:52:23;29.80;63.90
814;DHT22;389;48.710;9.392;2022-08-05T16:54:48;29.80;63.50
814;DHT22;389;48.710;9.392;2022-08-05T16:57:14;29.90;63.40
814;DHT22;389;48.710;9.392;2022-08-05T16:59:40;29.80;63.50
814;DHT22;389;48.710;9.392;2022-08-05T17:02:05;29.90;63.50
814;DHT22;389;48.710;9.392;2022-08-05T17:04:31;29.90;63.40
814;DHT22;389;48.710;9.392;2022-08-05T17:06:57;29.90;63.30
814;DHT22;389;48.710;9.392;2022-08-05T17:09:29;29.90;63.00
814;DHT22;389;48.710;9.392;2022-08-05T17:11:55;29.70;63.20
814;DHT22;389;48.710;9.392;2022-08-05T17:14:21;29.60;63.50
814;DHT22;389;48.710;9.392;2022-08-05T17:16:46;29.50;63.80
814;DHT22;389;48.710;9.392;2022-08-05T17:19:12;29.40;63.90
814;DHT22;389;48.710;9.392;2022-08-05T17:21:37;29.40;64.00
814;DHT22;389;48.710;9.392;2022-08-05T17:24:04;29.30;64.00
814;DHT22;389;48.710;9.392;2022-08-05T17:26:31;29.30;63.90
814;DHT22;389;48.710;9.392;2022-08-05T17:28:56;29.20;63.90
814;DHT22;389;48.710;9.392;2022-08-05T17:31:22;29.10;64.50
814;DHT22;389;48.710;9.392;2022-08-05T17:33:47;29.00;64.30
814;DHT22;389;48.710;9.392;2022-08-05T17:36:13;29.00;64.00
814;DHT22;389;48.710;9.392;2022-08-05T17:38:38;28.90;63.80
814;DHT22;389;48.710;9.392;2022-08-05T17:41:04;29.00;63.90
814;DHT22;389;48.710;9.392;2022-08-05T17:43:41;28.90;63.90
814;DHT22;389;48.710;9.392;2022-08-05T17:46:24;29.00;64.20
814;DHT22;389;48.710;9.392;2022-08-05T17:48:49;29.10;64.60
814;DHT22;389;48.710;9.392;2022-08-05T17:51:15;29.10;64.40
814;DHT22;389;48.710;9.392;2022-08-05T17:53:41;29.00;64.50
814;DHT22;389;48.710;9.392;2022-08-05T17:56:07;28.90;64.80
814;DHT22;389;48.710;9.392;2022-08-05T18:06:12;28.60;66.10
814;DHT22;389;48.710;9.392;2022-08-05T18:08:37;28.50;66.60
814;DHT22;389;48.710;9.392;2022-08-05T18:11:03;28.40;66.90
814;DHT22;389;48.710;9.392;2022-08-05T18:13:29;28.30;67.00
814;DHT22;389;48.710;9.392;2022-08-05T18:15:55;28.20;67.30
814;DHT22;389;48.710;9.392;2022-08-05T18:18:21;28.10;67.50
814;DHT22;389;48.710;9.392;2022-08-05T18:20:46;28.00;67.70
814;DHT22;389;48.710;9.392;2022-08-05T18:23:12;27.90;67.90
814;DHT22;389;48.710;9.392;2022-08-05T18:25:39;27.80;68.30
814;DHT22;389;48.710;9.392;2022-08-05T18:28:08;27.70;68.60
814;DHT22;389;48.710;9.392;2022-08-05T18:30:34;27.60;69.00
814;DHT22;389;48.710;9.392;2022-08-05T18:33:00;27.50;69.50
814;DHT22;389;48.710;9.392;2022-08-05T18:35:26;27.40;69.70
814;DHT22;389;48.710;9.392;2022-08-05T18:37:51;27.40;70.20
814;DHT22;389;48.710;9.392;2022-08-05T18:40:17;27.30;70.80
814;DHT22;389;48.710;9.392;2022-08-05T18:42:43;27.20;71.40
814;DHT22;389;48.710;9.392;2022-08-05T18:45:08;27.10;72.50
814;DHT22;389;48.710;9.392;2022-08-05T18:47:34;27.10;73.60
814;DHT22;389;48.710;9.392;2022-08-05T18:50:05;27.00;74.80
814;DHT22;389;48.710;9.392;2022-08-05T18:52:49;26.90;75.40
814;DHT22;389;48.710;9.392;2022-08-05T18:55:15;26.90;75.80
814;DHT22;389;48.710;9.392;2022-08-05T18:57:41;26.80;76.60
814;DHT22;389;48.710;9.392;2022-08-05T19:00:10;26.70;77.10
814;DHT22;389;48.710;9.392;2022-08-05T19:02:36;26.60;77.50
814;DHT22;389;48.710;9.392;2022-08-05T19:05:04;26.60;77.90
814;DHT22;389;48.710;9.392;2022-08-05T19:07:30;26.60;78.40
814;DHT22;389;48.710;9.392;2022-08-05T19:09:56;26.50;78.80
814;DHT22;389;48.710;9.392;2022-08-05T19:12:21;26.50;79.30
814;DHT22;389;48.710;9.392;2022-08-05T19:14:47;26.40;79.60
814;DHT22;389;48.710;9.392;2022-08-05T19:17:13;26.40;80.10
814;DHT22;389;48.710;9.392;2022-08-05T19:19:40;26.30;80.50
814;DHT22;389;48.710;9.392;2022-08-05T19:22:07;26.30;80.80
814;DHT22;389;48.710;9.392;2022-08-05T19:24:33;26.20;81.90
814;DHT22;389;48.710;9.392;2022-08-05T19:26:58;26.10;81.70
814;DHT22;389;48.710;9.392;2022-08-05T19:29:24;26.10;82.20
814;DHT22;389;48.710;9.392;2022-08-05T19:31:53;26.00;82.60
814;DHT22;389;48.710;9.392;2022-08-05T19:34:18;26.00;82.90
814;DHT22;389;48.710;9.392;2022-08-05T19:36:44;25.90;83.20
814;DHT22;389;48.710;9.392;2022-08-05T19:39:09;25.80;83.60
814;DHT22;389;48.710;9.392;2022-08-05T19:41:35;25.80;84.00
814;DHT22;389;48.710;9.392;2022-08-05T19:44:04;25.80;84.50
814;DHT22;389;48.710;9.392;2022-08-05T19:46:33;25.60;85.80
814;DHT22;389;48.710;9.392;2022-08-05T19:49:01;25.50;88.60
814;DHT22;389;48.710;9.392;2022-08-05T19:51:28;25.30;90.40
814;DHT22;389;48.710;9.392;2022-08-05T19:53:58;25.00;91.00
814;DHT22;389;48.710;9.392;2022-08-05T19:56:25;24.70;91.80
814;DHT22;389;48.710;9.392;2022-08-05T19:58:52;24.50;92.30
814;DHT22;389;48.710;9.392;2022-08-05T20:01:18;24.30;93.40
814;DHT22;389;48.710;9.392;2022-08-05T20:03:44;24.10;94.20
814;DHT22;389;48.710;9.392;2022-08-05T20:06:10;24.00;93.70
814;DHT22;389;48.710;9.392;2022-08-05T20:08:35;23.90;93.90
814;DHT22;389;48.710;9.392;2022-08-05T20:11:01;23.80;94.20
814;DHT22;389;48.710;9.392;2022-08-05T20:13:27;23.80;94.50
814;DHT22;389;48.710;9.392;2022-08-05T20:15:52;23.80;94.50
814;DHT22;389;48.710;9.392;2022-08-05T20:18:18;23.90;94.10
814;DHT22;389;48.710;9.392;2022-08-05T20:20:45;23.90;94.10
814;DHT22;389;48.710;9.392;2022-08-05T20:23:11;24.00;93.80
814;DHT22;389;48.710;9.392;2022-08-05T20:25:38;24.00;93.50
814;DHT22;389;48.710;9.392;2022-08-05T20:28:07;24.10;93.40
814;DHT22;389;48.710;9.392;2022-08-05T20:30:33;24.10;93.70
814;DHT22;389;48.710;9.392;2022-08-05T20:32:59;24.10;93.00
814;DHT22;389;48.710;9.392;2022-08-05T20:35:25;24.20;92.90
814;DHT22;389;48.710;9.392;2022-08-05T20:37:50;24.20;92.70
814;DHT22;389;48.710;9.392;2022-08-05T20:40:16;24.20;92.70
814;DHT22;389;48.710;9.392;2022-08-05T20:42:42;24.20;92.70
814;DHT22;389;48.710;9.392;2022-08-05T20:45:08;24.20;92.50
814;DHT22;389;48.710;9.392;2022-08-05T20:47:34;24.30;92.40
814;DHT22;389;48.710;9.392;2022-08-05T20:50:00;24.20;92.40
814;DHT22;389;48.710;9.392;2022-08-05T20:52:26;24.20;93.30
814;DHT22;389;48.710;9.392;2022-08-05T20:54:52;24.00;93.90
814;DHT22;389;48.710;9.392;2022-08-05T20:57:18;23.70;94.50
814;DHT22;389;48.710;9.392;2022-08-05T20:59:44;23.40;95.10
814;DHT22;389;48.710;9.392;2022-08-05T21:02:09;23.10;96.00
814;DHT22;389;48.710;9.392;2022-08-05T21:04:35;22.90;96.30
814;DHT22;389;48.710;9.392;2022-08-05T21:07:00;22.70;96.80
814;DHT22;389;48.710;9.392;2022-08-05T21:09:26;22.60;97.30
814;DHT22;389;48.710;9.392;2022-08-05T21:11:52;22.50;97.20
814;DHT22;389;48.710;9.392;2022-08-05T21:14:17;22.40;97.20
814;DHT22;389;48.710;9.392;2022-08-05T21:16:43;22.40;97.30
814;DHT22;389;48.710;9.392;2022-08-05T21:19:09;22.40;97.70
814;DHT22;389;48.710;9.392;2022-08-05T21:21:35;22.50;97.50
814;DHT22;389;48.710;9.392;2022-08-05T21:24:01;22.40;97.10
814;DHT22;389;48.710;9.392;2022-08-05T21:26:27;22.50;97.70
814;DHT22;389;48.710;9.392;2022-08-05T21:28:52;22.50;97.50
814;DHT22;389;48.710;9.392;2022-08-05T21:31:18;22.50;97.50
814;DHT22;389;48.710;9.392;2022-08-05T21:33:45;22.60;97.50
814;DHT22;389;48.710;9.392;2022-08-05T21:36:11;22.60;96.60
814;DHT22;389;48.710;9.392;2022-08-05T21:38:36;22.60;96.30